sensor_id;sensor_type;location;lat;lon;timestamp;P1;durP1;ratioP1;P2;durP2;ratioP2
9461;SDS011;4769;42.660;23.262;2023-01-23T00:01:16;9.77;;;5.90;;
9461;SDS011;4769;42.660;23.262;2023-01-23T00:03:44;7.23;;;4.87;;
9461;SDS011;4769;42.660;23.262;2023-01-23T00:06:12;6.10;;;5.33;;
9461;SDS011;4769;42.660;23.262;2023-01-23T00:08:39;6.60;;;5.53;;
9461;SDS011;4769;42.660;23.262;2023-01-23T00:11:10;8.17;;;4.93;;
9461;SDS011;4769;42.660;23.262;2023-01-23T00:13:37;8.73;;;5.70;;
9461;SDS011;4769;42.660;23.262;2023-01-23T00:16:05;8.50;;;5.50;;
9461;SDS011;4769;42.660;23.262;2023-01-23T00:18:32;8.07;;;5.57;;
9461;SDS011;4769;42.660;23.262;2023-01-23T00:21:02;12.90;;;8.87;;
9461;SDS011;4769;42.660;23.262;2023-01-23T00:23:29;6.27;;;5.67;;
9461;SDS011;4769;42.660;23.262;2023-01-23T00:26:00;7.57;;;5.47;;
9461;SDS011;4769;42.660;23.262;2023-01-23T00:28:29;7.47;;;5.17;;
9461;SDS011;4769;42.660;23.262;2023-01-23T00:31:01;7.77;;;5.63;;
9461;SDS011;4769;42.660;23.262;2023-01-23T00:33:28;6.77;;;5.73;;
9461;SDS011;4769;42.660;23.262;2023-01-23T00:35:55;6.23;;;5.63;;
9461;SDS011;4769;42.660;23.262;2023-01-23T00:38:22;6.53;;;5.90;;
9461;SDS011;4769;42.660;23.262;2023-01-23T00:40:49;9.13;;;6.70;;
9461;SDS011;4769;42.660;23.262;2023-01-23T00:43:16;6.67;;;5.97;;
9461;SDS011;4769;42.660;23.262;2023-01-23T00:45:44;7.23;;;6.20;;
9461;SDS011;4769;42.660;23.262;2023-01-23T00:48:11;6.63;;;5.87;;
9461;SDS011;4769;42.660;23.262;2023-01-23T00:50:37;6.37;;;5.20;;
9461;SDS011;4769;42.660;23.262;2023-01-23T00:53:04;7.23;;;5.10;;
9461;SDS011;4769;42.660;23.262;2023-01-23T00:55:31;7.37;;;5.90;;
9461;SDS011;4769;42.660;23.262;2023-01-23T00:57:58;6.57;;;5.43;;
9461;SDS011;4769;42.660;23.262;2023-01-23T01:00:24;7.40;;;6.17;;
9461;SDS011;4769;42.660;23.262;2023-01-23T01:02:53;6.63;;;5.40;;
9461;SDS011;4769;42.660;23.262;2023-01-23T01:05:19;6.97;;;4.93;;
9461;SDS011;4769;42.660;23.262;2023-01-23T01:07:46;6.07;;;5.47;;
9461;SDS011;4769;42.660;23.262;2023-01-23T01:10:13;8.40;;;5.27;;
9461;SDS011;4769;42.660;23.262;2023-01-23T01:12:40;7.10;;;5.20;;
9461;SDS011;4769;42.660;23.262;2023-01-23T01:15:08;6.53;;;4.77;;
9461;SDS011;4769;42.660;23.262;2023-01-23T01:17:36;5.37;;;4.60;;
9461;SDS011;4769;42.660;23.262;2023-01-23T01:20:04;5.10;;;4.60;;
9461;SDS011;4769;42.660;23.262;2023-01-23T01:22:32;4.33;;;3.53;;
9461;SDS011;4769;42.660;23.262;2023-01-23T01:24:59;9.07;;;4.20;;
9461;SDS011;4769;42.660;23.262;2023-01-23T01:27:27;5.70;;;4.30;;
9461;SDS011;4769;42.660;23.262;2023-01-23T01:29:54;6.10;;;3.87;;
9461;SDS011;4769;42.660;23.262;2023-01-23T01:32:21;4.10;;;3.70;;
9461;SDS011;4769;42.660;23.262;2023-01-23T01:34:49;4.30;;;3.80;;
9461;SDS011;4769;42.660;23.262;2023-01-23T01:37:17;6.37;;;4.17;;
9461;SDS011;4769;42.660;23.262;2023-01-23T01:39:46;5.33;;;3.87;;
9461;SDS011;4769;42.660;23.262;2023-01-23T01:42:13;6.83;;;4.03;;
9461;SDS011;4769;42.660;23.262;2023-01-23T01:44:50;4.00;;;3.60;;
9461;SDS011;4769;42.660;23.262;2023-01-23T01:47:18;6.23;;;3.90;;
9461;SDS011;4769;42.660;23.262;2023-01-23T01:49:45;6.27;;;3.93;;
9461;SDS011;4769;42.660;23.262;2023-01-23T01:52:12;4.10;;;3.60;;
9461;SDS011;4769;42.660;23.262;2023-01-23T01:54:43;5.57;;;4.33;;
9461;SDS011;4769;42.660;23.262;2023-01-23T01:57:13;5.33;;;3.87;;
9461;SDS011;4769;42.660;23.262;2023-01-23T01:59:42;4.87;;;3.87;;
9461;SDS011;4769;42.660;23.262;2023-01-23T02:02:13;4.73;;;4.23;;
9461;SDS011;4769;42.660;23.262;2023-01-23T02:04:44;5.30;;;4.80;;
9461;SDS011;4769;42.660;23.262;2023-01-23T02:07:17;5.60;;;5.10;;
9461;SDS011;4769;42.660;23.262;2023-01-23T02:09:49;5.73;;;4.83;;
9461;SDS011;4769;42.660;23.262;2023-01-23T02:12:17;5.63;;;4.70;;
9461;SDS011;4769;42.660;23.262;2023-01-23T02:14:44;6.37;;;4.90;;
9461;SDS011;4769;42.660;23.262;2023-01-23T02:17:11;5.07;;;4.57;;
9461;SDS011;4769;42.660;23.262;2023-01-23T02:19:39;6.00;;;4.93;;
9461;SDS011;4769;42.660;23.262;2023-01-23T02:22:14;6.83;;;4.30;;
9461;SDS011;4769;42.660;23.262;2023-01-23T02:25:05;6.37;;;4.60;;
9461;SDS011;4769;42.660;23.262;2023-01-23T02:27:42;6.07;;;4.70;;
9461;SDS011;4769;42.660;23.262;2023-01-23T02:30:09;7.53;;;5.00;;
9461;SDS011;4769;42.660;23.262;2023-01-23T02:32:37;6.47;;;5.10;;
9461;SDS011;4769;42.660;23.262;2023-01-23T02:35:07;6.83;;;5.30;;
9461;SDS011;4769;42.660;23.262;2023-01-23T02:37:36;6.23;;;4.90;;
9461;SDS011;4769;42.660;23.262;2023-01-23T02:40:08;7.33;;;5.00;;
9461;SDS011;4769;42.660;23.262;2023-01-23T02:42:36;6.33;;;4.97;;
9461;SDS011;4769;42.660;23.262;2023-01-23T02:45:08;6.27;;;4.77;;
9461;SDS011;4769;42.660;23.262;2023-01-23T02:47:36;6.30;;;4.80;;
9461;SDS011;4769;42.660;23.262;2023-01-23T02:50:03;6.67;;;5.43;;
9461;SDS011;4769;42.660;23.262;2023-01-23T02:52:30;6.50;;;5.23;;
9461;SDS011;4769;42.660;23.262;2023-01-23T02:54:58;5.70;;;4.47;;
9461;SDS011;4769;42.660;23.262;2023-01-23T02:57:25;5.27;;;4.37;;
9461;SDS011;4769;42.660;23.262;2023-01-23T02:59:51;5.43;;;4.23;;
9461;SDS011;4769;42.660;23.262;2023-01-23T03:02:37;5.20;;;4.33;;
9461;SDS011;4769;42.660;23.262;2023-01-23T03:05:04;7.70;;;4.27;;
9461;SDS011;4769;42.660;23.262;2023-01-23T03:07:31;5.30;;;3.63;;
9461;SDS011;4769;42.660;23.262;2023-01-23T03:09:58;4.33;;;3.90;;
9461;SDS011;4769;42.660;23.262;2023-01-23T03:12:25;6.20;;;4.30;;
9461;SDS011;4769;42.660;23.262;2023-01-23T03:14:52;5.97;;;4.50;;
9461;SDS011;4769;42.660;23.262;2023-01-23T03:17:20;4.63;;;3.77;;
9461;SDS011;4769;42.660;23.262;2023-01-23T03:19:49;4.83;;;4.10;;
9461;SDS011;4769;42.660;23.262;2023-01-23T03:22:16;5.63;;;3.93;;
9461;SDS011;4769;42.660;23.262;2023-01-23T03:24:43;5.40;;;4.33;;
9461;SDS011;4769;42.660;23.262;2023-01-23T03:27:09;5.27;;;4.57;;
9461;SDS011;4769;42.660;23.262;2023-01-23T03:29:36;4.20;;;3.80;;
9461;SDS011;4769;42.660;23.262;2023-01-23T03:32:20;4.47;;;3.77;;
9461;SDS011;4769;42.660;23.262;2023-01-23T03:34:51;3.97;;;3.40;;
9461;SDS011;4769;42.660;23.262;2023-01-23T03:37:18;4.47;;;3.47;;
9461;SDS011;4769;42.660;23.262;2023-01-23T03:39:44;4.53;;;3.67;;
9461;SDS011;4769;42.660;23.262;2023-01-23T03:42:29;4.80;;;3.73;;
9461;SDS011;4769;42.660;23.262;2023-01-23T03:44:58;5.23;;;3.57;;
9461;SDS011;4769;42.660;23.262;2023-01-23T03:47:25;5.57;;;4.00;;
9461;SDS011;4769;42.660;23.262;2023-01-23T03:49:53;5.50;;;3.83;;
9461;SDS011;4769;42.660;23.262;2023-01-23T03:52:20;3.70;;;3.40;;
9461;SDS011;4769;42.660;23.262;2023-01-23T03:54:46;4.70;;;3.90;;
9461;SDS011;4769;42.660;23.262;2023-01-23T03:57:13;5.87;;;4.17;;
9461;SDS011;4769;42.660;23.262;2023-01-23T03:59:40;6.07;;;4.23;;
9461;SDS011;4769;42.660;23.262;2023-01-23T04:02:06;4.97;;;4.30;;
9461;SDS011;4769;42.660;23.262;2023-01-23T04:04:34;4.97;;;4.47;;
9461;SDS011;4769;42.660;23.262;2023-01-23T04:07:02;5.43;;;4.30;;
9461;SDS011;4769;42.660;23.262;2023-01-23T04:09:31;6.70;;;4.97;;
9461;SDS011;4769;42.660;23.262;2023-01-23T04:11:58;6.70;;;5.20;;
9461;SDS011;4769;42.660;23.262;2023-01-23T04:14:26;6.40;;;5.10;;
9461;SDS011;4769;42.660;23.262;2023-01-23T04:17:01;7.07;;;5.13;;
9461;SDS011;4769;42.660;23.262;2023-01-23T04:19:28;6.13;;;5.10;;
9461;SDS011;4769;42.660;23.262;2023-01-23T04:21:55;7.30;;;5.23;;
9461;SDS011;4769;42.660;23.262;2023-01-23T04:24:23;6.33;;;5.13;;
9461;SDS011;4769;42.660;23.262;2023-01-23T04:26:50;6.43;;;5.17;;
9461;SDS011;4769;42.660;23.262;2023-01-23T04:29:17;6.73;;;5.40;;
9461;SDS011;4769;42.660;23.262;2023-01-23T04:31:44;6.63;;;5.43;;
9461;SDS011;4769;42.660;23.262;2023-01-23T04:34:11;6.93;;;5.20;;
9461;SDS011;4769;42.660;23.262;2023-01-23T04:36:38;6.17;;;4.93;;
9461;SDS011;4769;42.660;23.262;2023-01-23T04:39:05;6.77;;;4.70;;
9461;SDS011;4769;42.660;23.262;2023-01-23T04:41:33;5.53;;;4.77;;
9461;SDS011;4769;42.660;23.262;2023-01-23T04:44:00;5.13;;;4.07;;
9461;SDS011;4769;42.660;23.262;2023-01-23T04:46:44;6.37;;;4.33;;
9461;SDS011;4769;42.660;23.262;2023-01-23T04:49:11;5.00;;;3.80;;
9461;SDS011;4769;42.660;23.262;2023-01-23T04:51:38;5.13;;;4.10;;
9461;SDS011;4769;42.660;23.262;2023-01-23T04:54:08;4.53;;;3.70;;
9461;SDS011;4769;42.660;23.262;2023-01-23T04:56:36;4.57;;;3.60;;
9461;SDS011;4769;42.660;23.262;2023-01-23T04:59:03;6.30;;;3.93;;
9461;SDS011;4769;42.660;23.262;2023-01-23T05:01:31;4.23;;;3.77;;
9461;SDS011;4769;42.660;23.262;2023-01-23T05:03:58;3.90;;;3.60;;
9461;SDS011;4769;42.660;23.262;2023-01-23T05:06:25;4.80;;;4.20;;
9461;SDS011;4769;42.660;23.262;2023-01-23T05:08:51;16.30;;;14.70;;
9461;SDS011;4769;42.660;23.262;2023-01-23T05:11:18;5.57;;;5.07;;
9461;SDS011;4769;42.660;23.262;2023-01-23T05:13:46;6.30;;;5.70;;
9461;SDS011;4769;42.660;23.262;2023-01-23T05:16:13;7.17;;;5.20;;
9461;SDS011;4769;42.660;23.262;2023-01-23T05:18:40;7.30;;;4.90;;
9461;SDS011;4769;42.660;23.262;2023-01-23T05:21:07;7.50;;;6.43;;
9461;SDS011;4769;42.660;23.262;2023-01-23T05:23:33;6.80;;;5.93;;
9461;SDS011;4769;42.660;23.262;2023-01-23T05:26:01;7.97;;;6.00;;
9461;SDS011;4769;42.660;23.262;2023-01-23T05:28:28;7.13;;;6.00;;
9461;SDS011;4769;42.660;23.262;2023-01-23T05:30:56;6.70;;;6.00;;
9461;SDS011;4769;42.660;23.262;2023-01-23T05:33:23;8.63;;;6.90;;
9461;SDS011;4769;42.660;23.262;2023-01-23T05:35:49;9.53;;;5.77;;
9461;SDS011;4769;42.660;23.262;2023-01-23T05:38:16;7.53;;;5.83;;
9461;SDS011;4769;42.660;23.262;2023-01-23T05:40:43;8.27;;;5.77;;
9461;SDS011;4769;42.660;23.262;2023-01-23T05:43:10;7.03;;;5.73;;
9461;SDS011;4769;42.660;23.262;2023-01-23T05:45:39;9.83;;;5.60;;
9461;SDS011;4769;42.660;23.262;2023-01-23T05:48:07;5.17;;;4.67;;
9461;SDS011;4769;42.660;23.262;2023-01-23T05:50:34;4.83;;;4.20;;
9461;SDS011;4769;42.660;23.262;2023-01-23T05:53:01;5.07;;;4.20;;
9461;SDS011;4769;42.660;23.262;2023-01-23T05:55:28;5.40;;;4.77;;
9461;SDS011;4769;42.660;23.262;2023-01-23T05:57:58;5.57;;;4.87;;
9461;SDS011;4769;42.660;23.262;2023-01-23T06:00:28;7.70;;;5.17;;
9461;SDS011;4769;42.660;23.262;2023-01-23T06:02:54;7.20;;;5.20;;
9461;SDS011;4769;42.660;23.262;2023-01-23T06:05:23;10.83;;;5.80;;
9461;SDS011;4769;42.660;23.262;2023-01-23T06:07:49;6.13;;;4.90;;
9461;SDS011;4769;42.660;23.262;2023-01-23T06:10:16;6.47;;;4.10;;
9461;SDS011;4769;42.660;23.262;2023-01-23T06:12:43;5.77;;;4.03;;
9461;SDS011;4769;42.660;23.262;2023-01-23T06:15:10;4.27;;;3.77;;
9461;SDS011;4769;42.660;23.262;2023-01-23T06:17:37;4.97;;;3.57;;
9461;SDS011;4769;42.660;23.262;2023-01-23T06:20:04;4.77;;;3.50;;
9461;SDS011;4769;42.660;23.262;2023-01-23T06:22:32;7.47;;;3.90;;
9461;SDS011;4769;42.660;23.262;2023-01-23T06:24:59;7.23;;;3.37;;
9461;SDS011;4769;42.660;23.262;2023-01-23T06:27:26;3.33;;;3.00;;
9461;SDS011;4769;42.660;23.262;2023-01-23T06:29:52;3.77;;;3.33;;
9461;SDS011;4769;42.660;23.262;2023-01-23T06:32:19;5.37;;;3.20;;
9461;SDS011;4769;42.660;23.262;2023-01-23T06:34:47;7.17;;;3.20;;
9461;SDS011;4769;42.660;23.262;2023-01-23T06:37:14;3.87;;;3.40;;
9461;SDS011;4769;42.660;23.262;2023-01-23T06:39:43;6.67;;;3.40;;
9461;SDS011;4769;42.660;23.262;2023-01-23T06:42:10;9.23;;;7.13;;
9461;SDS011;4769;42.660;23.262;2023-01-23T06:44:36;6.67;;;4.90;;
9461;SDS011;4769;42.660;23.262;2023-01-23T06:47:03;9.17;;;4.70;;
9461;SDS011;4769;42.660;23.262;2023-01-23T06:49:30;6.63;;;3.93;;
9461;SDS011;4769;42.660;23.262;2023-01-23T06:51:57;6.27;;;4.50;;
9461;SDS011;4769;42.660;23.262;2023-01-23T06:54:24;4.67;;;3.90;;
9461;SDS011;4769;42.660;23.262;2023-01-23T06:56:52;7.97;;;5.83;;
9461;SDS011;4769;42.660;23.262;2023-01-23T06:59:19;6.30;;;3.97;;
9461;SDS011;4769;42.660;23.262;2023-01-23T07:01:45;6.60;;;4.83;;
9461;SDS011;4769;42.660;23.262;2023-01-23T07:04:12;5.43;;;4.87;;
9461;SDS011;4769;42.660;23.262;2023-01-23T07:06:39;5.87;;;5.00;;
9461;SDS011;4769;42.660;23.262;2023-01-23T07:09:05;8.57;;;5.50;;
9461;SDS011;4769;42.660;23.262;2023-01-23T07:11:32;10.03;;;6.40;;
9461;SDS011;4769;42.660;23.262;2023-01-23T07:14:02;9.07;;;7.30;;
9461;SDS011;4769;42.660;23.262;2023-01-23T07:16:29;8.07;;;7.13;;
9461;SDS011;4769;42.660;23.262;2023-01-23T07:18:56;9.77;;;7.67;;
9461;SDS011;4769;42.660;23.262;2023-01-23T07:21:23;10.93;;;8.33;;
9461;SDS011;4769;42.660;23.262;2023-01-23T07:23:50;10.77;;;8.57;;
9461;SDS011;4769;42.660;23.262;2023-01-23T07:26:20;11.93;;;8.77;;
9461;SDS011;4769;42.660;23.262;2023-01-23T07:28:47;11.60;;;9.47;;
9461;SDS011;4769;42.660;23.262;2023-01-23T07:31:15;12.53;;;10.50;;
9461;SDS011;4769;42.660;23.262;2023-01-23T07:33:42;12.70;;;9.90;;
9461;SDS011;4769;42.660;23.262;2023-01-23T07:36:09;13.23;;;9.03;;
9461;SDS011;4769;42.660;23.262;2023-01-23T07:38:38;12.90;;;10.20;;
9461;SDS011;4769;42.660;23.262;2023-01-23T07:41:05;13.53;;;9.43;;
9461;SDS011;4769;42.660;23.262;2023-01-23T07:43:32;16.97;;;10.33;;
9461;SDS011;4769;42.660;23.262;2023-01-23T07:46:00;12.60;;;9.53;;
9461;SDS011;4769;42.660;23.262;2023-01-23T07:48:28;14.50;;;9.73;;
9461;SDS011;4769;42.660;23.262;2023-01-23T07:50:55;13.53;;;8.43;;
9461;SDS011;4769;42.660;23.262;2023-01-23T07:53:22;12.53;;;8.93;;
9461;SDS011;4769;42.660;23.262;2023-01-23T07:55:49;10.17;;;8.57;;
9461;SDS011;4769;42.660;23.262;2023-01-23T07:58:15;11.47;;;8.57;;
9461;SDS011;4769;42.660;23.262;2023-01-23T08:00:42;10.53;;;7.83;;
9461;SDS011;4769;42.660;23.262;2023-01-23T08:03:10;9.73;;;7.80;;
9461;SDS011;4769;42.660;23.262;2023-01-23T08:05:38;10.47;;;7.77;;
9461;SDS011;4769;42.660;23.262;2023-01-23T08:08:05;9.17;;;6.60;;
9461;SDS011;4769;42.660;23.262;2023-01-23T08:10:33;8.67;;;6.80;;
9461;SDS011;4769;42.660;23.262;2023-01-23T08:13:00;9.10;;;6.57;;
9461;SDS011;4769;42.660;23.262;2023-01-23T08:15:26;10.03;;;6.80;;
9461;SDS011;4769;42.660;23.262;2023-01-23T08:17:53;15.17;;;6.73;;
9461;SDS011;4769;42.660;23.262;2023-01-23T08:20:22;11.37;;;7.17;;
9461;SDS011;4769;42.660;23.262;2023-01-23T08:22:50;9.63;;;7.03;;
9461;SDS011;4769;42.660;23.262;2023-01-23T08:25:18;10.63;;;7.20;;
9461;SDS011;4769;42.660;23.262;2023-01-23T08:27:45;10.80;;;7.27;;
9461;SDS011;4769;42.660;23.262;2023-01-23T08:30:12;11.20;;;6.93;;
9461;SDS011;4769;42.660;23.262;2023-01-23T08:32:39;10.47;;;6.97;;
9461;SDS011;4769;42.660;23.262;2023-01-23T08:35:06;8.10;;;6.70;;
9461;SDS011;4769;42.660;23.262;2023-01-23T08:37:34;12.87;;;7.47;;
9461;SDS011;4769;42.660;23.262;2023-01-23T08:40:02;9.80;;;6.57;;
9461;SDS011;4769;42.660;23.262;2023-01-23T08:42:29;8.67;;;6.37;;
9461;SDS011;4769;42.660;23.262;2023-01-23T08:44:56;9.03;;;6.30;;
9461;SDS011;4769;42.660;23.262;2023-01-23T08:47:23;6.70;;;5.50;;
9461;SDS011;4769;42.660;23.262;2023-01-23T08:49:50;8.50;;;5.97;;
9461;SDS011;4769;42.660;23.262;2023-01-23T08:52:16;8.17;;;6.13;;
9461;SDS011;4769;42.660;23.262;2023-01-23T08:54:43;7.23;;;5.80;;
9461;SDS011;4769;42.660;23.262;2023-01-23T08:57:11;5.40;;;4.70;;
9461;SDS011;4769;42.660;23.262;2023-01-23T08:59:38;7.20;;;5.47;;
9461;SDS011;4769;42.660;23.262;2023-01-23T09:02:08;7.93;;;5.90;;
9461;SDS011;4769;42.660;23.262;2023-01-23T09:04:36;6.97;;;5.60;;
9461;SDS011;4769;42.660;23.262;2023-01-23T09:07:03;9.40;;;6.03;;
9461;SDS011;4769;42.660;23.262;2023-01-23T09:09:30;7.60;;;5.80;;
9461;SDS011;4769;42.660;23.262;2023-01-23T09:11:56;7.90;;;5.60;;
9461;SDS011;4769;42.660;23.262;2023-01-23T09:14:24;8.63;;;5.80;;
9461;SDS011;4769;42.660;23.262;2023-01-23T09:16:51;7.33;;;5.50;;
9461;SDS011;4769;42.660;23.262;2023-01-23T09:19:18;7.67;;;6.07;;
9461;SDS011;4769;42.660;23.262;2023-01-23T09:21:45;6.53;;;4.97;;
9461;SDS011;4769;42.660;23.262;2023-01-23T09:24:11;6.73;;;5.13;;
9461;SDS011;4769;42.660;23.262;2023-01-23T09:26:38;7.00;;;5.43;;
9461;SDS011;4769;42.660;23.262;2023-01-23T09:29:05;11.67;;;7.00;;
9461;SDS011;4769;42.660;23.262;2023-01-23T09:31:33;9.13;;;6.30;;
9461;SDS011;4769;42.660;23.262;2023-01-23T09:34:00;9.43;;;5.83;;
9461;SDS011;4769;42.660;23.262;2023-01-23T09:36:28;8.87;;;6.10;;
9461;SDS011;4769;42.660;23.262;2023-01-23T09:38:54;8.93;;;6.20;;
9461;SDS011;4769;42.660;23.262;2023-01-23T09:41:22;9.00;;;6.90;;
9461;SDS011;4769;42.660;23.262;2023-01-23T09:43:52;11.73;;;6.17;;
9461;SDS011;4769;42.660;23.262;2023-01-23T09:46:25;8.40;;;6.60;;
9461;SDS011;4769;42.660;23.262;2023-01-23T09:48:58;8.50;;;6.10;;
9461;SDS011;4769;42.660;23.262;2023-01-23T09:51:30;10.20;;;6.47;;
9461;SDS011;4769;42.660;23.262;2023-01-23T09:54:12;8.63;;;6.30;;
9461;SDS011;4769;42.660;23.262;2023-01-23T09:56:55;8.73;;;6.87;;
9461;SDS011;4769;42.660;23.262;2023-01-23T09:59:26;10.20;;;6.77;;
9461;SDS011;4769;42.660;23.262;2023-01-23T10:01:58;10.20;;;7.30;;
9461;SDS011;4769;42.660;23.262;2023-01-23T10:04:26;8.63;;;7.10;;
9461;SDS011;4769;42.660;23.262;2023-01-23T10:06:58;10.87;;;7.30;;
9461;SDS011;4769;42.660;23.262;2023-01-23T10:09:48;12.97;;;7.07;;
9461;SDS011;4769;42.660;23.262;2023-01-23T10:12:29;8.30;;;6.80;;
9461;SDS011;4769;42.660;23.262;2023-01-23T10:15:15;10.90;;;7.07;;
9461;SDS011;4769;42.660;23.262;2023-01-23T10:17:53;8.83;;;6.57;;
9461;SDS011;4769;42.660;23.262;2023-01-23T10:20:43;11.63;;;7.20;;
9461;SDS011;4769;42.660;23.262;2023-01-23T10:23:19;13.87;;;8.20;;
9461;SDS011;4769;42.660;23.262;2023-01-23T10:26:02;9.47;;;7.50;;
9461;SDS011;4769;42.660;23.262;2023-01-23T10:28:31;12.13;;;7.30;;
9461;SDS011;4769;42.660;23.262;2023-01-23T10:31:02;10.17;;;7.67;;
9461;SDS011;4769;42.660;23.262;2023-01-23T10:33:35;9.87;;;7.23;;
9461;SDS011;4769;42.660;23.262;2023-01-23T10:36:12;9.60;;;7.63;;
9461;SDS011;4769;42.660;23.262;2023-01-23T10:38:49;9.20;;;7.43;;
9461;SDS011;4769;42.660;23.262;2023-01-23T10:41:23;10.70;;;7.90;;
9461;SDS011;4769;42.660;23.262;2023-01-23T10:43:50;12.03;;;9.10;;
9461;SDS011;4769;42.660;23.262;2023-01-23T10:46:18;11.63;;;8.60;;
9461;SDS011;4769;42.660;23.262;2023-01-23T10:48:47;10.20;;;8.30;;
9461;SDS011;4769;42.660;23.262;2023-01-23T10:54:13;14.07;;;8.87;;
9461;SDS011;4769;42.660;23.262;2023-01-23T10:56:48;10.03;;;7.60;;
9461;SDS011;4769;42.660;23.262;2023-01-23T10:59:24;11.00;;;8.30;;
9461;SDS011;4769;42.660;23.262;2023-01-23T11:01:58;11.17;;;9.33;;
9461;SDS011;4769;42.660;23.262;2023-01-23T11:04:28;12.60;;;8.70;;
9461;SDS011;4769;42.660;23.262;2023-01-23T11:07:03;10.27;;;8.73;;
9461;SDS011;4769;42.660;23.262;2023-01-23T11:09:34;11.83;;;7.90;;
9461;SDS011;4769;42.660;23.262;2023-01-23T11:12:13;13.33;;;9.73;;
9461;SDS011;4769;42.660;23.262;2023-01-23T11:14:43;9.83;;;8.47;;
9461;SDS011;4769;42.660;23.262;2023-01-23T11:17:14;13.70;;;9.93;;
9461;SDS011;4769;42.660;23.262;2023-01-23T11:19:44;12.50;;;10.40;;
9461;SDS011;4769;42.660;23.262;2023-01-23T11:25:16;13.13;;;10.30;;
9461;SDS011;4769;42.660;23.262;2023-01-23T11:27:55;12.83;;;10.07;;
9461;SDS011;4769;42.660;23.262;2023-01-23T11:33:13;12.00;;;9.90;;
9461;SDS011;4769;42.660;23.262;2023-01-23T11:35:48;16.80;;;10.40;;
9461;SDS011;4769;42.660;23.262;2023-01-23T11:38:24;14.87;;;10.67;;
9461;SDS011;4769;42.660;23.262;2023-01-23T11:40:51;13.23;;;9.97;;
9461;SDS011;4769;42.660;23.262;2023-01-23T11:43:18;14.53;;;9.93;;
9461;SDS011;4769;42.660;23.262;2023-01-23T11:45:48;13.67;;;10.70;;
9461;SDS011;4769;42.660;23.262;2023-01-23T11:48:35;13.40;;;10.57;;
9461;SDS011;4769;42.660;23.262;2023-01-23T11:51:19;12.53;;;9.80;;
9461;SDS011;4769;42.660;23.262;2023-01-23T11:53:59;17.77;;;13.27;;
9461;SDS011;4769;42.660;23.262;2023-01-23T11:56:50;13.73;;;10.43;;
9461;SDS011;4769;42.660;23.262;2023-01-23T11:59:43;12.20;;;8.47;;
9461;SDS011;4769;42.660;23.262;2023-01-23T12:02:28;12.50;;;10.13;;
9461;SDS011;4769;42.660;23.262;2023-01-23T12:05:15;14.20;;;9.67;;
9461;SDS011;4769;42.660;23.262;2023-01-23T12:07:53;12.83;;;9.87;;
9461;SDS011;4769;42.660;23.262;2023-01-23T12:10:37;11.57;;;8.77;;
9461;SDS011;4769;42.660;23.262;2023-01-23T12:13:19;11.37;;;9.13;;
9461;SDS011;4769;42.660;23.262;2023-01-23T12:16:02;10.63;;;9.07;;
9461;SDS011;4769;42.660;23.262;2023-01-23T12:18:40;12.87;;;9.77;;
9461;SDS011;4769;42.660;23.262;2023-01-23T12:21:16;12.67;;;9.60;;
9461;SDS011;4769;42.660;23.262;2023-01-23T12:23:48;13.10;;;9.53;;
9461;SDS011;4769;42.660;23.262;2023-01-23T12:26:27;11.97;;;9.73;;
9461;SDS011;4769;42.660;23.262;2023-01-23T12:29:04;13.27;;;9.50;;
9461;SDS011;4769;42.660;23.262;2023-01-23T12:31:50;13.00;;;10.10;;
9461;SDS011;4769;42.660;23.262;2023-01-23T12:37:42;15.23;;;10.50;;
9461;SDS011;4769;42.660;23.262;2023-01-23T12:40:21;14.87;;;10.33;;
9461;SDS011;4769;42.660;23.262;2023-01-23T12:42:54;12.90;;;10.33;;
9461;SDS011;4769;42.660;23.262;2023-01-23T12:45:27;11.63;;;9.50;;
9461;SDS011;4769;42.660;23.262;2023-01-23T12:47:57;16.53;;;10.90;;
9461;SDS011;4769;42.660;23.262;2023-01-23T12:50:32;14.70;;;11.40;;
9461;SDS011;4769;42.660;23.262;2023-01-23T12:53:06;13.23;;;11.40;;
9461;SDS011;4769;42.660;23.262;2023-01-23T12:55:37;15.47;;;11.57;;
9461;SDS011;4769;42.660;23.262;2023-01-23T12:58:08;13.63;;;10.33;;
9461;SDS011;4769;42.660;23.262;2023-01-23T13:00:45;13.47;;;11.13;;
9461;SDS011;4769;42.660;23.262;2023-01-23T13:03:23;15.87;;;11.53;;
9461;SDS011;4769;42.660;23.262;2023-01-23T13:06:14;15.20;;;11.30;;
9461;SDS011;4769;42.660;23.262;2023-01-23T13:08:51;15.57;;;11.50;;
9461;SDS011;4769;42.660;23.262;2023-01-23T13:11:25;16.03;;;10.93;;
9461;SDS011;4769;42.660;23.262;2023-01-23T13:14:22;14.40;;;10.47;;
9461;SDS011;4769;42.660;23.262;2023-01-23T13:16:50;13.67;;;10.03;;
9461;SDS011;4769;42.660;23.262;2023-01-23T13:19:22;14.67;;;10.63;;
9461;SDS011;4769;42.660;23.262;2023-01-23T13:22:22;14.37;;;11.23;;
9461;SDS011;4769;42.660;23.262;2023-01-23T13:24:50;17.03;;;11.17;;
9461;SDS011;4769;42.660;23.262;2023-01-23T13:27:42;15.77;;;11.17;;
9461;SDS011;4769;42.660;23.262;2023-01-23T13:36:23;13.07;;;10.10;;
9461;SDS011;4769;42.660;23.262;2023-01-23T13:42:08;13.07;;;9.53;;
9461;SDS011;4769;42.660;23.262;2023-01-23T13:47:55;12.33;;;9.70;;
9461;SDS011;4769;42.660;23.262;2023-01-23T13:50:51;14.00;;;9.47;;
9461;SDS011;4769;42.660;23.262;2023-01-23T13:53:24;14.87;;;9.70;;
9461;SDS011;4769;42.660;23.262;2023-01-23T13:56:09;11.73;;;9.10;;
9461;SDS011;4769;42.660;23.262;2023-01-23T13:59:08;12.83;;;10.30;;
9461;SDS011;4769;42.660;23.262;2023-01-23T14:01:42;13.87;;;10.33;;
9461;SDS011;4769;42.660;23.262;2023-01-23T14:04:31;13.67;;;9.80;;
9461;SDS011;4769;42.660;23.262;2023-01-23T14:07:24;15.67;;;9.53;;
9461;SDS011;4769;42.660;23.262;2023-01-23T14:10:17;11.70;;;9.60;;
9461;SDS011;4769;42.660;23.262;2023-01-23T14:12:47;19.03;;;10.80;;
9461;SDS011;4769;42.660;23.262;2023-01-23T14:15:21;15.40;;;10.00;;
9461;SDS011;4769;42.660;23.262;2023-01-23T14:18:17;10.77;;;8.60;;
9461;SDS011;4769;42.660;23.262;2023-01-23T14:20:52;14.40;;;9.87;;
9461;SDS011;4769;42.660;23.262;2023-01-23T14:23:22;11.90;;;8.70;;
9461;SDS011;4769;42.660;23.262;2023-01-23T14:25:55;17.60;;;7.97;;
9461;SDS011;4769;42.660;23.262;2023-01-23T14:28:22;9.70;;;7.27;;
9461;SDS011;4769;42.660;23.262;2023-01-23T14:30:53;13.80;;;8.80;;
9461;SDS011;4769;42.660;23.262;2023-01-23T14:33:21;10.47;;;8.40;;
9461;SDS011;4769;42.660;23.262;2023-01-23T14:35:48;11.27;;;8.27;;
9461;SDS011;4769;42.660;23.262;2023-01-23T14:38:20;12.30;;;8.40;;
9461;SDS011;4769;42.660;23.262;2023-01-23T14:40:52;9.60;;;7.73;;
9461;SDS011;4769;42.660;23.262;2023-01-23T14:43:19;10.73;;;7.73;;
9461;SDS011;4769;42.660;23.262;2023-01-23T14:45:51;11.30;;;8.87;;
9461;SDS011;4769;42.660;23.262;2023-01-23T14:48:26;9.80;;;8.60;;
9461;SDS011;4769;42.660;23.262;2023-01-23T14:51:00;13.33;;;9.47;;
9461;SDS011;4769;42.660;23.262;2023-01-23T14:53:31;11.97;;;9.53;;
9461;SDS011;4769;42.660;23.262;2023-01-23T14:55:58;11.30;;;10.05;;
9461;SDS011;4769;42.660;23.262;2023-01-23T14:58:26;14.63;;;9.67;;
9461;SDS011;4769;42.660;23.262;2023-01-23T15:00:54;11.77;;;9.57;;
9461;SDS011;4769;42.660;23.262;2023-01-23T15:03:34;12.90;;;9.40;;
9461;SDS011;4769;42.660;23.262;2023-01-23T15:06:05;11.37;;;9.50;;
9461;SDS011;4769;42.660;23.262;2023-01-23T15:08:35;14.10;;;10.23;;
9461;SDS011;4769;42.660;23.262;2023-01-23T15:11:03;14.03;;;10.10;;
9461;SDS011;4769;42.660;23.262;2023-01-23T15:13:39;15.37;;;10.37;;
9461;SDS011;4769;42.660;23.262;2023-01-23T15:16:10;17.17;;;11.20;;
9461;SDS011;4769;42.660;23.262;2023-01-23T15:18:44;16.23;;;13.10;;
9461;SDS011;4769;42.660;23.262;2023-01-23T15:21:29;14.77;;;11.63;;
9461;SDS011;4769;42.660;23.262;2023-01-23T15:26:55;17.30;;;12.20;;
9461;SDS011;4769;42.660;23.262;2023-01-23T15:29:46;12.67;;;10.07;;
9461;SDS011;4769;42.660;23.262;2023-01-23T15:32:14;14.17;;;10.53;;
9461;SDS011;4769;42.660;23.262;2023-01-23T15:34:50;14.30;;;11.30;;
9461;SDS011;4769;42.660;23.262;2023-01-23T15:37:20;10.23;;;8.90;;
9461;SDS011;4769;42.660;23.262;2023-01-23T15:39:52;13.10;;;11.50;;
9461;SDS011;4769;42.660;23.262;2023-01-23T15:42:23;15.63;;;11.73;;